sensor_id;sensor_type;location;lat;lon;timestamp;P1;durP1;ratioP1;P2;durP2;ratioP2
75700;SDS011;64321;48.796;44.740;2023-07-28T00:04:59;4.50;;;2.42;;
75700;SDS011;64321;48.796;44.740;2023-07-28T00:10:02;3.65;;;1.85;;
75700;SDS011;64321;48.796;44.740;2023-07-28T00:15:05;4.05;;;2.50;;
75700;SDS011;64321;48.796;44.740;2023-07-28T00:20:08;3.67;;;1.63;;
75700;SDS011;64321;48.796;44.740;2023-07-28T00:25:10;3.75;;;1.58;;
75700;SDS011;64321;48.796;44.740;2023-07-28T00:30:12;7.80;;;1.58;;
75700;SDS011;64321;48.796;44.740;2023-07-28T00:35:15;3.65;;;2.15;;
75700;SDS011;64321;48.796;44.740;2023-07-28T00:40:17;3.63;;;1.70;;
75700;SDS011;64321;48.796;44.740;2023-07-28T00:45:20;5.28;;;1.77;;
75700;SDS011;64321;48.796;44.740;2023-07-28T00:50:23;3.65;;;1.65;;
75700;SDS011;64321;48.796;44.740;2023-07-28T00:55:26;4.95;;;1.95;;
75700;SDS011;64321;48.796;44.740;2023-07-28T01:00:28;4.25;;;2.13;;
75700;SDS011;64321;48.796;44.740;2023-07-28T01:05:38;5.00;;;2.35;;
75700;SDS011;64321;48.796;44.740;2023-07-28T01:10:41;6.88;;;2.45;;
75700;SDS011;64321;48.796;44.740;2023-07-28T01:15:44;4.55;;;2.15;;
75700;SDS011;64321;48.796;44.740;2023-07-28T01:20:46;4.07;;;1.73;;
75700;SDS011;64321;48.796;44.740;2023-07-28T01:26:08;4.82;;;2.03;;
75700;SDS011;64321;48.796;44.740;2023-07-28T01:31:11;8.80;;;2.40;;
75700;SDS011;64321;48.796;44.740;2023-07-28T01:36:13;6.57;;;2.58;;
75700;SDS011;64321;48.796;44.740;2023-07-28T01:41:16;6.35;;;2.47;;
75700;SDS011;64321;48.796;44.740;2023-07-28T01:46:18;7.18;;;2.70;;
75700;SDS011;64321;48.796;44.740;2023-07-28T01:51:20;8.63;;;2.28;;
75700;SDS011;64321;48.796;44.740;2023-07-28T01:56:22;5.00;;;2.35;;
75700;SDS011;64321;48.796;44.740;2023-07-28T02:01:25;8.38;;;2.50;;
75700;SDS011;64321;48.796;44.740;2023-07-28T02:06:27;7.82;;;2.13;;
75700;SDS011;64321;48.796;44.740;2023-07-28T02:11:29;7.47;;;2.25;;
75700;SDS011;64321;48.796;44.740;2023-07-28T02:16:32;7.25;;;3.05;;
75700;SDS011;64321;48.796;44.740;2023-07-28T02:21:35;8.60;;;2.90;;
75700;SDS011;64321;48.796;44.740;2023-07-28T02:26:37;4.82;;;2.33;;
75700;SDS011;64321;48.796;44.740;2023-07-28T02:31:39;5.97;;;2.58;;
75700;SDS011;64321;48.796;44.740;2023-07-28T02:36:41;7.78;;;2.75;;
75700;SDS011;64321;48.796;44.740;2023-07-28T02:41:44;5.20;;;2.33;;
75700;SDS011;64321;48.796;44.740;2023-07-28T02:46:46;6.00;;;2.85;;
75700;SDS011;64321;48.796;44.740;2023-07-28T02:51:48;5.85;;;2.65;;
75700;SDS011;64321;48.796;44.740;2023-07-28T02:56:51;7.93;;;2.80;;
75700;SDS011;64321;48.796;44.740;2023-07-28T03:01:53;7.82;;;2.80;;
75700;SDS011;64321;48.796;44.740;2023-07-28T03:06:56;6.72;;;2.80;;
75700;SDS011;64321;48.796;44.740;2023-07-28T03:11:58;4.50;;;2.72;;
75700;SDS011;64321;48.796;44.740;2023-07-28T03:17:00;7.68;;;2.67;;
75700;SDS011;64321;48.796;44.740;2023-07-28T03:22:03;6.55;;;2.90;;
75700;SDS011;64321;48.796;44.740;2023-07-28T03:27:05;6.53;;;2.25;;
75700;SDS011;64321;48.796;44.740;2023-07-28T03:32:07;5.90;;;2.63;;
75700;SDS011;64321;48.796;44.740;2023-07-28T03:37:09;4.90;;;2.53;;
75700;SDS011;64321;48.796;44.740;2023-07-28T03:42:12;5.78;;;2.75;;
75700;SDS011;64321;48.796;44.740;2023-07-28T03:47:16;4.68;;;2.40;;
75700;SDS011;64321;48.796;44.740;2023-07-28T03:52:18;6.57;;;2.72;;
75700;SDS011;64321;48.796;44.740;2023-07-28T03:57:20;7.97;;;2.78;;
75700;SDS011;64321;48.796;44.740;2023-07-28T04:02:22;9.32;;;2.28;;
75700;SDS011;64321;48.796;44.740;2023-07-28T04:07:25;5.20;;;2.45;;
75700;SDS011;64321;48.796;44.740;2023-07-28T04:12:27;4.60;;;2.28;;
75700;SDS011;64321;48.796;44.740;2023-07-28T04:17:30;6.55;;;2.40;;
75700;SDS011;64321;48.796;44.740;2023-07-28T04:22:32;5.38;;;2.65;;
75700;SDS011;64321;48.796;44.740;2023-07-28T04:27:35;7.47;;;2.80;;
75700;SDS011;64321;48.796;44.740;2023-07-28T04:32:39;4.30;;;2.15;;
75700;SDS011;64321;48.796;44.740;2023-07-28T04:37:47;7.93;;;2.58;;
75700;SDS011;64321;48.796;44.740;2023-07-28T04:42:56;6.18;;;2.30;;
75700;SDS011;64321;48.796;44.740;2023-07-28T04:47:59;5.88;;;2.13;;
75700;SDS011;64321;48.796;44.740;2023-07-28T04:53:01;5.05;;;2.17;;
75700;SDS011;64321;48.796;44.740;2023-07-28T04:58:27;4.45;;;2.05;;
75700;SDS011;64321;48.796;44.740;2023-07-28T05:03:29;4.95;;;1.90;;
75700;SDS011;64321;48.796;44.740;2023-07-28T05:08:37;4.60;;;2.10;;
75700;SDS011;64321;48.796;44.740;2023-07-28T05:13:40;4.55;;;1.92;;
75700;SDS011;64321;48.796;44.740;2023-07-28T05:18:43;4.03;;;2.00;;
75700;SDS011;64321;48.796;44.740;2023-07-28T05:24:18;3.65;;;1.92;;
75700;SDS011;64321;48.796;44.740;2023-07-28T05:29:20;3.80;;;1.77;;
75700;SDS011;64321;48.796;44.740;2023-07-28T05:34:23;7.82;;;1.63;;
75700;SDS011;64321;48.796;44.740;2023-07-28T05:39:25;4.05;;;1.92;;
75700;SDS011;64321;48.796;44.740;2023-07-28T05:44:28;4.63;;;2.55;;
75700;SDS011;64321;48.796;44.740;2023-07-28T05:49:30;7.40;;;2.08;;
75700;SDS011;64321;48.796;44.740;2023-07-28T05:54:32;4.85;;;2.15;;
75700;SDS011;64321;48.796;44.740;2023-07-28T05:59:35;4.40;;;2.05;;
75700;SDS011;64321;48.796;44.740;2023-07-28T06:04:37;7.32;;;2.20;;
75700;SDS011;64321;48.796;44.740;2023-07-28T06:09:41;6.03;;;1.85;;
75700;SDS011;64321;48.796;44.740;2023-07-28T06:14:43;7.28;;;2.15;;
75700;SDS011;64321;48.796;44.740;2023-07-28T06:19:46;5.78;;;2.20;;
75700;SDS011;64321;48.796;44.740;2023-07-28T06:24:49;8.60;;;2.30;;
75700;SDS011;64321;48.796;44.740;2023-07-28T06:29:51;4.30;;;2.13;;
75700;SDS011;64321;48.796;44.740;2023-07-28T06:34:53;4.80;;;2.15;;
75700;SDS011;64321;48.796;44.740;2023-07-28T06:39:56;5.95;;;2.22;;
75700;SDS011;64321;48.796;44.740;2023-07-28T06:44:58;8.43;;;2.55;;
75700;SDS011;64321;48.796;44.740;2023-07-28T06:50:00;8.10;;;2.15;;
75700;SDS011;64321;48.796;44.740;2023-07-28T06:55:04;6.18;;;2.45;;
75700;SDS011;64321;48.796;44.740;2023-07-28T07:00:09;6.72;;;2.38;;
75700;SDS011;64321;48.796;44.740;2023-07-28T07:05:12;5.70;;;2.08;;
75700;SDS011;64321;48.796;44.740;2023-07-28T07:10:15;5.57;;;2.10;;
75700;SDS011;64321;48.796;44.740;2023-07-28T07:15:17;7.43;;;2.20;;
75700;SDS011;64321;48.796;44.740;2023-07-28T07:20:19;9.63;;;2.55;;
75700;SDS011;64321;48.796;44.740;2023-07-28T07:25:21;9.98;;;1.83;;
75700;SDS011;64321;48.796;44.740;2023-07-28T07:30:24;6.47;;;2.13;;
75700;SDS011;64321;48.796;44.740;2023-07-28T07:35:26;7.97;;;2.05;;
75700;SDS011;64321;48.796;44.740;2023-07-28T07:40:28;6.45;;;1.85;;
75700;SDS011;64321;48.796;44.740;2023-07-28T07:45:31;6.78;;;1.95;;
75700;SDS011;64321;48.796;44.740;2023-07-28T07:50:33;5.93;;;1.83;;
75700;SDS011;64321;48.796;44.740;2023-07-28T07:55:36;8.38;;;2.20;;
75700;SDS011;64321;48.796;44.740;2023-07-28T08:00:38;8.07;;;1.90;;
75700;SDS011;64321;48.796;44.740;2023-07-28T08:05:40;6.55;;;2.05;;
75700;SDS011;64321;48.796;44.740;2023-07-28T08:10:43;6.00;;;1.67;;
75700;SDS011;64321;48.796;44.740;2023-07-28T08:15:45;7.25;;;2.38;;
75700;SDS011;64321;48.796;44.740;2023-07-28T08:20:48;8.65;;;2.10;;
75700;SDS011;64321;48.796;44.740;2023-07-28T08:25:50;7.95;;;1.90;;
75700;SDS011;64321;48.796;44.740;2023-07-28T08:30:54;7.90;;;1.95;;
75700;SDS011;64321;48.796;44.740;2023-07-28T08:35:57;7.57;;;1.98;;
75700;SDS011;64321;48.796;44.740;2023-07-28T08:41:03;8.07;;;1.75;;
75700;SDS011;64321;48.796;44.740;2023-07-28T08:46:05;5.32;;;1.85;;
75700;SDS011;64321;48.796;44.740;2023-07-28T08:51:09;6.45;;;2.00;;
75700;SDS011;64321;48.796;44.740;2023-07-28T08:56:11;11.02;;;1.85;;
75700;SDS011;64321;48.796;44.740;2023-07-28T09:01:13;5.93;;;1.83;;
75700;SDS011;64321;48.796;44.740;2023-07-28T09:06:16;8.48;;;1.80;;
75700;SDS011;64321;48.796;44.740;2023-07-28T09:11:18;5.40;;;1.38;;
75700;SDS011;64321;48.796;44.740;2023-07-28T09:16:20;8.45;;;1.30;;
75700;SDS011;64321;48.796;44.740;2023-07-28T09:21:24;8.20;;;1.70;;
75700;SDS011;64321;48.796;44.740;2023-07-28T09:26:35;4.32;;;1.65;;
75700;SDS011;64321;48.796;44.740;2023-07-28T09:31:38;4.88;;;1.85;;
75700;SDS011;64321;48.796;44.740;2023-07-28T09:36:40;6.63;;;1.58;;
75700;SDS011;64321;48.796;44.740;2023-07-28T09:41:43;14.55;;;1.88;;
75700;SDS011;64321;48.796;44.740;2023-07-28T09:46:50;5.82;;;1.70;;
75700;SDS011;64321;48.796;44.740;2023-07-28T09:51:54;5.25;;;1.95;;
75700;SDS011;64321;48.796;44.740;2023-07-28T09:56:56;4.47;;;1.40;;
75700;SDS011;64321;48.796;44.740;2023-07-28T10:02:02;7.57;;;1.83;;
75700;SDS011;64321;48.796;44.740;2023-07-28T10:07:04;5.50;;;1.98;;
75700;SDS011;64321;48.796;44.740;2023-07-28T10:12:08;5.47;;;1.98;;
75700;SDS011;64321;48.796;44.740;2023-07-28T10:17:19;8.20;;;1.85;;
75700;SDS011;64321;48.796;44.740;2023-07-28T10:22:21;6.63;;;1.55;;
75700;SDS011;64321;48.796;44.740;2023-07-28T10:27:43;6.20;;;1.83;;
75700;SDS011;64321;48.796;44.740;2023-07-28T10:32:48;7.75;;;1.77;;
75700;SDS011;64321;48.796;44.740;2023-07-28T10:37:55;6.57;;;1.98;;
75700;SDS011;64321;48.796;44.740;2023-07-28T10:43:01;6.82;;;2.22;;
75700;SDS011;64321;48.796;44.740;2023-07-28T10:48:04;7.35;;;1.65;;
75700;SDS011;64321;48.796;44.740;2023-07-28T10:53:06;6.45;;;1.65;;
75700;SDS011;64321;48.796;44.740;2023-07-28T10:58:09;6.20;;;1.65;;
75700;SDS011;64321;48.796;44.740;2023-07-28T11:03:11;7.63;;;1.70;;
75700;SDS011;64321;48.796;44.740;2023-07-28T11:08:14;6.60;;;1.65;;
75700;SDS011;64321;48.796;44.740;2023-07-28T11:13:16;6.07;;;2.17;;
75700;SDS011;64321;48.796;44.740;2023-07-28T11:18:38;5.25;;;1.55;;
75700;SDS011;64321;48.796;44.740;2023-07-28T11:23:44;7.15;;;2.20;;
75700;SDS011;64321;48.796;44.740;2023-07-28T11:28:46;5.68;;;2.50;;
75700;SDS011;64321;48.796;44.740;2023-07-28T11:33:48;9.23;;;2.35;;
75700;SDS011;64321;48.796;44.740;2023-07-28T11:38:51;10.25;;;1.92;;
75700;SDS011;64321;48.796;44.740;2023-07-28T11:43:54;9.18;;;2.22;;
75700;SDS011;64321;48.796;44.740;2023-07-28T11:49:06;9.48;;;1.70;;
75700;SDS011;64321;48.796;44.740;2023-07-28T11:54:13;9.38;;;2.53;;
75700;SDS011;64321;48.796;44.740;2023-07-28T11:59:19;7.00;;;1.55;;
75700;SDS011;64321;48.796;44.740;2023-07-28T12:04:26;9.15;;;2.20;;
75700;SDS011;64321;48.796;44.740;2023-07-28T12:09:32;9.45;;;2.55;;
75700;SDS011;64321;48.796;44.740;2023-07-28T12:14:35;7.55;;;1.70;;
75700;SDS011;64321;48.796;44.740;2023-07-28T12:19:58;13.18;;;2.97;;
75700;SDS011;64321;48.796;44.740;2023-07-28T12:25:04;10.10;;;2.75;;
75700;SDS011;64321;48.796;44.740;2023-07-28T12:30:06;5.97;;;2.00;;
75700;SDS011;64321;48.796;44.740;2023-07-28T12:35:15;7.22;;;2.03;;
75700;SDS011;64321;48.796;44.740;2023-07-28T12:40:18;5.43;;;1.42;;
75700;SDS011;64321;48.796;44.740;2023-07-28T12:45:26;4.65;;;1.75;;
75700;SDS011;64321;48.796;44.740;2023-07-28T12:50:28;5.88;;;1.92;;
75700;SDS011;64321;48.796;44.740;2023-07-28T12:55:42;5.75;;;1.73;;
75700;SDS011;64321;48.796;44.740;2023-07-28T13:00:47;5.55;;;1.52;;
75700;SDS011;64321;48.796;44.740;2023-07-28T13:05:52;6.47;;;2.10;;
75700;SDS011;64321;48.796;44.740;2023-07-28T13:10:54;4.68;;;1.45;;
75700;SDS011;64321;48.796;44.740;2023-07-28T13:15:59;3.53;;;1.85;;
75700;SDS011;64321;48.796;44.740;2023-07-28T13:21:02;8.93;;;2.33;;
75700;SDS011;64321;48.796;44.740;2023-07-28T13:26:04;7.95;;;1.63;;
75700;SDS011;64321;48.796;44.740;2023-07-28T13:31:07;4.05;;;1.73;;
75700;SDS011;64321;48.796;44.740;2023-07-28T13:36:09;3.22;;;1.55;;
75700;SDS011;64321;48.796;44.740;2023-07-28T13:41:11;3.83;;;1.55;;
75700;SDS011;64321;48.796;44.740;2023-07-28T13:46:13;3.58;;;1.23;;
75700;SDS011;64321;48.796;44.740;2023-07-28T13:51:16;5.60;;;1.42;;
75700;SDS011;64321;48.796;44.740;2023-07-28T13:56:23;9.40;;;1.20;;
75700;SDS011;64321;48.796;44.740;2023-07-28T14:01:25;6.70;;;1.83;;
75700;SDS011;64321;48.796;44.740;2023-07-28T14:06:28;5.65;;;1.60;;
75700;SDS011;64321;48.796;44.740;2023-07-28T14:11:31;4.85;;;1.85;;
75700;SDS011;64321;48.796;44.740;2023-07-28T14:16:33;4.13;;;1.38;;
75700;SDS011;64321;48.796;44.740;2023-07-28T14:21:35;4.47;;;1.50;;
75700;SDS011;64321;48.796;44.740;2023-07-28T14:26:41;4.57;;;1.42;;
75700;SDS011;64321;48.796;44.740;2023-07-28T14:31:43;5.28;;;2.22;;
75700;SDS011;64321;48.796;44.740;2023-07-28T14:36:45;9.00;;;2.13;;
75700;SDS011;64321;48.796;44.740;2023-07-28T14:41:48;7.72;;;2.55;;
75700;SDS011;64321;48.796;44.740;2023-07-28T14:46:50;9.85;;;4.13;;
75700;SDS011;64321;48.796;44.740;2023-07-28T14:51:52;10.10;;;3.95;;
75700;SDS011;64321;48.796;44.740;2023-07-28T14:56:54;5.50;;;2.95;;
75700;SDS011;64321;48.796;44.740;2023-07-28T15:01:56;12.45;;;2.70;;
75700;SDS011;64321;48.796;44.740;2023-07-28T15:06:59;5.75;;;2.13;;
75700;SDS011;64321;48.796;44.740;2023-07-28T15:12:01;4.95;;;2.13;;
75700;SDS011;64321;48.796;44.740;2023-07-28T15:17:03;5.75;;;2.13;;
75700;SDS011;64321;48.796;44.740;2023-07-28T15:22:05;5.72;;;2.13;;
75700;SDS011;64321;48.796;44.740;2023-07-28T15:27:08;15.10;;;4.38;;
75700;SDS011;64321;48.796;44.740;2023-07-28T15:32:11;11.90;;;3.60;;
75700;SDS011;64321;48.796;44.740;2023-07-28T15:37:13;7.82;;;2.20;;
75700;SDS011;64321;48.796;44.740;2023-07-28T15:42:15;7.85;;;3.08;;
75700;SDS011;64321;48.796;44.740;2023-07-28T15:47:20;8.80;;;2.60;;
75700;SDS011;64321;48.796;44.740;2023-07-28T15:52:22;22.55;;;3.75;;
75700;SDS011;64321;48.796;44.740;2023-07-28T15:57:24;14.45;;;3.95;;
75700;SDS011;64321;48.796;44.740;2023-07-28T16:02:27;19.23;;;4.03;;
75700;SDS011;64321;48.796;44.740;2023-07-28T16:07:29;11.55;;;4.75;;
75700;SDS011;64321;48.796;44.740;2023-07-28T16:12:32;15.20;;;4.30;;
75700;SDS011;64321;48.796;44.740;2023-07-28T16:17:34;16.45;;;4.32;;
75700;SDS011;64321;48.796;44.740;2023-07-28T16:22:36;15.00;;;4.18;;
75700;SDS011;64321;48.796;44.740;2023-07-28T16:27:40;12.23;;;3.70;;
75700;SDS011;64321;48.796;44.740;2023-07-28T16:32:42;22.98;;;5.15;;
75700;SDS011;64321;48.796;44.740;2023-07-28T16:37:44;18.77;;;5.90;;
75700;SDS011;64321;48.796;44.740;2023-07-28T16:42:47;14.60;;;4.80;;
75700;SDS011;64321;48.796;44.740;2023-07-28T16:47:49;18.85;;;6.53;;
75700;SDS011;64321;48.796;44.740;2023-07-28T16:52:51;15.27;;;4.90;;
75700;SDS011;64321;48.796;44.740;2023-07-28T16:57:53;9.95;;;4.72;;
75700;SDS011;64321;48.796;44.740;2023-07-28T17:02:56;12.27;;;5.15;;
75700;SDS011;64321;48.796;44.740;2023-07-28T17:08:00;19.83;;;6.88;;
75700;SDS011;64321;48.796;44.740;2023-07-28T17:13:02;15.85;;;5.43;;
75700;SDS011;64321;48.796;44.740;2023-07-28T17:18:05;14.38;;;4.88;;
75700;SDS011;64321;48.796;44.740;2023-07-28T17:23:08;8.90;;;3.47;;
75700;SDS011;64321;48.796;44.740;2023-07-28T17:28:10;8.75;;;3.70;;
75700;SDS011;64321;48.796;44.740;2023-07-28T17:33:13;11.45;;;3.88;;
75700;SDS011;64321;48.796;44.740;2023-07-28T17:38:15;11.27;;;3.90;;
75700;SDS011;64321;48.796;44.740;2023-07-28T17:43:17;13.23;;;3.75;;
75700;SDS011;64321;48.796;44.740;2023-07-28T17:48:19;7.80;;;2.60;;
75700;SDS011;64321;48.796;44.740;2023-07-28T17:53:22;9.40;;;3.22;;
75700;SDS011;64321;48.796;44.740;2023-07-28T17:58:25;10.35;;;3.53;;
75700;SDS011;64321;48.796;44.740;2023-07-28T18:03:27;13.27;;;4.10;;
75700;SDS011;64321;48.796;44.740;2023-07-28T18:08:29;8.02;;;2.90;;
75700;SDS011;64321;48.796;44.740;2023-07-28T18:13:32;10.35;;;2.47;;
75700;SDS011;64321;48.796;44.740;2023-07-28T18:18:34;6.05;;;2.50;;
75700;SDS011;64321;48.796;44.740;2023-07-28T18:23:36;5.45;;;2.22;;
75700;SDS011;64321;48.796;44.740;2023-07-28T18:28:38;4.38;;;1.83;;
75700;SDS011;64321;48.796;44.740;2023-07-28T18:33:40;6.72;;;2.00;;
75700;SDS011;64321;48.796;44.740;2023-07-28T18:38:43;4.32;;;1.50;;
75700;SDS011;64321;48.796;44.740;2023-07-28T18:43:45;5.45;;;1.85;;
75700;SDS011;64321;48.796;44.740;2023-07-28T18:48:47;5.25;;;1.80;;
75700;SDS011;64321;48.796;44.740;2023-07-28T18:53:51;6.72;;;1.23;;
75700;SDS011;64321;48.796;44.740;2023-07-28T18:58:53;6.65;;;2.25;;
75700;SDS011;64321;48.796;44.740;2023-07-28T19:03:56;4.35;;;1.38;;
75700;SDS011;64321;48.796;44.740;2023-07-28T19:08:59;7.38;;;1.58;;
75700;SDS011;64321;48.796;44.740;2023-07-28T19:14:01;12.55;;;4.40;;
75700;SDS011;64321;48.796;44.740;2023-07-28T19:19:03;13.18;;;4.93;;
75700;SDS011;64321;48.796;44.740;2023-07-28T19:24:05;11.15;;;3.75;;
75700;SDS011;64321;48.796;44.740;2023-07-28T19:29:08;10.95;;;3.22;;
75700;SDS011;64321;48.796;44.740;2023-07-28T19:34:11;10.75;;;3.50;;
75700;SDS011;64321;48.796;44.740;2023-07-28T19:39:14;6.40;;;3.35;;
75700;SDS011;64321;48.796;44.740;2023-07-28T19:44:16;8.95;;;3.88;;
75700;SDS011;64321;48.796;44.740;2023-07-28T19:49:33;14.88;;;4.95;;
75700;SDS011;64321;48.796;44.740;2023-07-28T19:54:35;12.15;;;4.57;;
75700;SDS011;64321;48.796;44.740;2023-07-28T19:59:37;11.35;;;2.90;;
75700;SDS011;64321;48.796;44.740;2023-07-28T20:04:39;5.53;;;2.53;;
75700;SDS011;64321;48.796;44.740;2023-07-28T20:09:42;9.70;;;2.03;;
75700;SDS011;64321;48.796;44.740;2023-07-28T20:14:45;10.40;;;2.50;;
75700;SDS011;64321;48.796;44.740;2023-07-28T20:19:47;7.60;;;2.50;;
75700;SDS011;64321;48.796;44.740;2023-07-28T20:24:49;6.93;;;2.72;;
75700;SDS011;64321;48.796;44.740;2023-07-28T20:29:53;6.00;;;2.03;;
75700;SDS011;64321;48.796;44.740;2023-07-28T20:34:55;6.20;;;1.70;;
75700;SDS011;64321;48.796;44.740;2023-07-28T20:39:57;8.32;;;2.25;;
75700;SDS011;64321;48.796;44.740;2023-07-28T20:44:59;6.20;;;1.98;;
75700;SDS011;64321;48.796;44.740;2023-07-28T20:50:02;5.93;;;1.30;;
75700;SDS011;64321;48.796;44.740;2023-07-28T20:55:04;5.75;;;1.73;;
75700;SDS011;64321;48.796;44.740;2023-07-28T21:00:07;4.90;;;2.13;;
75700;SDS011;64321;48.796;44.740;2023-07-28T21:05:10;5.85;;;1.67;;
75700;SDS011;64321;48.796;44.740;2023-07-28T21:10:12;4.30;;;1.80;;
75700;SDS011;64321;48.796;44.740;2023-07-28T21:15:14;3.53;;;1.48;;
75700;SDS011;64321;48.796;44.740;2023-07-28T21:20:16;4.88;;;1.70;;
75700;SDS011;64321;48.796;44.740;2023-07-28T21:25:19;4.22;;;1.85;;
75700;SDS011;64321;48.796;44.740;2023-07-28T21:30:21;5.57;;;1.63;;
75700;SDS011;64321;48.796;44.740;2023-07-28T21:35:24;3.75;;;1.90;;
75700;SDS011;64321;48.796;44.740;2023-07-28T21:40:26;4.80;;;1.80;;
75700;SDS011;64321;48.796;44.740;2023-07-28T21:45:29;4.95;;;2.10;;
75700;SDS011;64321;48.796;44.740;2023-07-28T21:50:31;6.22;;;1.73;;
75700;SDS011;64321;48.796;44.740;2023-07-28T21:55:33;4.50;;;1.38;;
75700;SDS011;64321;48.796;44.740;2023-07-28T22:00:36;4.57;;;1.73;;
75700;SDS011;64321;48.796;44.740;2023-07-28T22:05:38;3.70;;;1.58;;
75700;SDS011;64321;48.796;44.740;2023-07-28T22:10:40;4.47;;;1.20;;
75700;SDS011;64321;48.796;44.740;2023-07-28T22:15:42;4.93;;;1.92;;
75700;SDS011;64321;48.796;44.740;2023-07-28T22:20:45;4.63;;;1.17;;
75700;SDS011;64321;48.796;44.740;2023-07-28T22:25:47;4.93;;;1.50;;
75700;SDS011;64321;48.796;44.740;2023-07-28T22:30:50;5.07;;;1.58;;
75700;SDS011;64321;48.796;44.740;2023-07-28T22:35:52;4.15;;;1.75;;
75700;SDS011;64321;48.796;44.740;2023-07-28T22:40:56;4.95;;;1.88;;
75700;SDS011;64321;48.796;44.740;2023-07-28T22:45:58;3.83;;;1.10;;
75700;SDS011;64321;48.796;44.740;2023-07-28T22:51:01;7.05;;;1.75;;
75700;SDS011;64321;48.796;44.740;2023-07-28T22:56:03;8.55;;;1.70;;
75700;SDS011;64321;48.796;44.740;2023-07-28T23:01:05;5.95;;;1.48;;
75700;SDS011;64321;48.796;44.740;2023-07-28T23:06:08;3.67;;;1.70;;
75700;SDS011;64321;48.796;44.740;2023-07-28T23:11:10;4.18;;;1.73;;
75700;SDS011;64321;48.796;44.740;2023-07-28T23:16:12;4.30;;;1.52;;
75700;SDS011;64321;48.796;44.740;2023-07-28T23:21:14;5.25;;;1.90;;
75700;SDS011;64321;48.796;44.740;2023-07-28T23:26:17;3.58;;;1.83;;
75700;SDS011;64321;48.796;44.740;2023-07-28T23:31:20;5.70;;;1.67;;
75700;SDS011;64321;48.796;44.740;2023-07-28T23:36:23;5.57;;;1.38;;
75700;SDS011;64321;48.796;44.740;2023-07-28T23:41:26;3.25;;;1.38;;
75700;SDS011;64321;48.796;44.740;2023-07-28T23:46:28;3.55;;;1.15;;
75700;SDS011;64321;48.796;44.740;2023-07-28T23:51:31;3.95;;;0.98;;
75700;SDS011;64321;48.796;44.740;2023-07-28T23:56:33;3.88;;;1.25;;
